createdAt,value
2023-06-05T00:00:07.969Z,71.91
2023-06-05T00:02:41.251Z,70.57
2023-06-05T00:05:10.808Z,70.54
2023-06-05T00:07:40.029Z,68.43
2023-06-05T00:10:10.320Z,68.53
2023-06-05T00:12:39.654Z,69.59
2023-06-05T00:15:11.327Z,72.03
2023-06-05T00:17:40.402Z,70.58
2023-06-05T00:20:11.406Z,70.27
2023-06-05T00:22:45.643Z,70.20
2023-06-05T00:25:14.349Z,70.35
2023-06-05T00:27:43.160Z,70.20
2023-06-05T00:30:15.056Z,71.03
2023-06-05T00:32:44.482Z,69.69
2023-06-05T00:35:13.278Z,70.02
2023-06-05T00:37:42.024Z,70.39
2023-06-05T00:40:11.298Z,69.60
2023-06-05T00:42:39.918Z,69.43
2023-06-05T00:45:10.320Z,68.62
2023-06-05T00:47:42.968Z,70.77
2023-06-05T00:50:13.976Z,69.19
2023-06-05T00:52:44.575Z,68.56
2023-06-05T00:55:14.278Z,68.02
2023-06-05T00:57:46.588Z,67.17
2023-06-05T01:00:16.838Z,67.77
2023-06-05T01:02:47.051Z,68.05
2023-06-05T01:05:16.182Z,70.82
2023-06-05T01:07:48.904Z,70.59
2023-06-05T01:10:18.938Z,71.46
2023-06-05T01:13:00.228Z,72.01
2023-06-05T01:15:35.053Z,73.00
2023-06-05T01:18:06.445Z,73.08
2023-06-05T01:20:35.950Z,72.79
2023-06-05T01:23:07.000Z,72.78
2023-06-05T01:25:37.865Z,73.44
2023-06-05T01:28:16.457Z,73.00
2023-06-05T01:30:55.034Z,73.96
2023-06-05T01:33:32.234Z,71.93
2023-06-05T01:36:06.270Z,73.79
2023-06-05T01:38:38.530Z,75.12
2023-06-05T01:41:08.662Z,78.02
2023-06-05T01:43:38.027Z,80.81
2023-06-05T01:46:08.981Z,81.95
2023-06-05T01:48:39.916Z,82.25
2023-06-05T01:51:09.917Z,82.17
2023-06-05T01:53:40.491Z,81.68
2023-06-05T01:56:09.965Z,81.32
2023-06-05T01:58:39.580Z,81.31
2023-06-05T02:01:09.366Z,81.07
2023-06-05T02:03:38.333Z,82.88
2023-06-05T02:06:08.361Z,83.78
2023-06-05T02:08:37.050Z,85.26
2023-06-05T02:11:11.345Z,85.09
2023-06-05T02:13:41.141Z,84.68
2023-06-05T02:16:14.377Z,84.02
2023-06-05T02:18:44.541Z,88.57
2023-06-05T02:21:15.762Z,91.52
2023-06-05T02:23:44.919Z,93.64
2023-06-05T02:26:17.279Z,91.75
2023-06-05T02:28:46.108Z,91.15
2023-06-05T02:31:17.653Z,93.21
2023-06-05T02:33:46.722Z,93.24
2023-06-05T02:36:16.774Z,95.57
2023-06-05T02:38:46.566Z,95.09
2023-06-05T02:41:17.046Z,96.95
2023-06-05T02:43:45.899Z,96.22
2023-06-05T02:46:14.755Z,95.15
2023-06-05T02:48:43.569Z,97.52
2023-06-05T02:51:12.991Z,96.58
2023-06-05T02:53:43.564Z,96.13
2023-06-05T02:56:14.466Z,99.29
2023-06-05T02:58:46.663Z,100.00
2023-06-05T03:01:16.259Z,100.00
2023-06-05T03:03:49.617Z,100.00
2023-06-05T03:06:20.418Z,100.00
2023-06-05T03:08:53.384Z,100.00
2023-06-05T03:11:22.828Z,100.00
2023-06-05T03:13:53.316Z,100.00
2023-06-05T03:16:24.355Z,100.00
2023-06-05T03:18:56.362Z,100.00
2023-06-05T03:21:25.708Z,100.00
2023-06-05T03:23:54.704Z,100.00
2023-06-05T03:26:26.195Z,100.00
2023-06-05T03:28:56.731Z,100.00
2023-06-05T03:31:25.562Z,100.00
2023-06-05T03:33:54.307Z,100.00
2023-06-05T03:36:24.093Z,100.00
2023-06-05T03:38:53.597Z,100.00
2023-06-05T03:41:22.560Z,100.00
2023-06-05T03:43:51.894Z,100.00
2023-06-05T03:46:24.820Z,100.00
2023-06-05T03:48:59.521Z,100.00
2023-06-05T03:51:31.211Z,100.00
2023-06-05T03:54:01.769Z,100.00
2023-06-05T03:56:35.131Z,100.00
2023-06-05T03:59:19.421Z,100.00
2023-06-05T04:01:52.967Z,100.00
2023-06-05T04:04:22.691Z,100.00
2023-06-05T04:06:56.206Z,100.00
2023-06-05T04:09:26.852Z,100.00
2023-06-05T04:11:56.414Z,100.00
2023-06-05T04:14:25.701Z,100.00
2023-06-05T04:16:56.989Z,100.00
2023-06-05T04:19:27.742Z,100.00
2023-06-05T04:22:00.388Z,100.00
2023-06-05T04:24:30.506Z,100.00
2023-06-05T04:27:02.107Z,100.00
2023-06-05T04:29:33.751Z,100.00
2023-06-05T04:32:04.703Z,100.00
2023-06-05T04:34:34.275Z,100.00
2023-06-05T04:37:04.651Z,100.00
2023-06-05T04:39:33.556Z,100.00
2023-06-05T04:42:14.627Z,100.00
2023-06-05T04:44:46.838Z,100.00
2023-06-05T04:47:17.040Z,100.00
2023-06-05T04:49:48.621Z,100.00
2023-06-05T04:52:18.074Z,100.00
2023-06-05T04:54:47.550Z,100.00
2023-06-05T04:57:17.694Z,100.00
2023-06-05T04:59:46.742Z,100.00
2023-06-05T05:02:19.059Z,100.00
2023-06-05T05:04:48.489Z,100.00
2023-06-05T05:07:17.797Z,100.00
2023-06-05T05:09:47.503Z,100.00
2023-06-05T05:12:17.307Z,100.00
2023-06-05T05:14:46.583Z,100.00
2023-06-05T05:17:18.194Z,100.00
2023-06-05T05:19:48.308Z,100.00
2023-06-05T05:22:17.401Z,100.00
2023-06-05T05:24:46.528Z,100.00
2023-06-05T05:27:15.461Z,100.00
2023-06-05T05:29:44.138Z,100.00
2023-06-05T05:32:13.238Z,100.00
2023-06-05T05:34:42.389Z,100.00
2023-06-05T05:37:12.479Z,100.00
2023-06-05T05:39:42.213Z,100.00
2023-06-05T05:42:10.948Z,100.00
2023-06-05T05:44:43.128Z,100.00
2023-06-05T05:47:11.870Z,100.00
2023-06-05T05:49:41.519Z,100.00
2023-06-05T05:52:13.303Z,100.00
2023-06-05T05:54:42.359Z,100.00
2023-06-05T05:57:11.126Z,100.00
2023-06-05T05:59:43.531Z,100.00
2023-06-05T06:02:13.631Z,100.00
2023-06-05T06:04:45.277Z,100.00
2023-06-05T06:07:15.815Z,100.00
2023-06-05T06:09:45.947Z,100.00
2023-06-05T06:12:14.740Z,100.00
2023-06-05T06:14:43.554Z,100.00
2023-06-05T06:17:12.931Z,100.00
2023-06-05T06:19:41.887Z,100.00
2023-06-05T06:22:13.226Z,100.00
2023-06-05T06:24:44.784Z,100.00
2023-06-05T06:29:51.226Z,100.00
2023-06-05T06:32:20.788Z,100.00
2023-06-05T06:34:49.548Z,100.00
2023-06-05T06:37:18.427Z,100.00
2023-06-05T06:39:49.537Z,100.00
2023-06-05T06:42:18.372Z,100.00
2023-06-05T06:44:58.652Z,100.00
2023-06-05T06:47:27.691Z,100.00
2023-06-05T06:49:57.838Z,100.00
2023-06-05T06:52:26.609Z,100.00
2023-06-05T06:54:57.347Z,100.00
2023-06-05T06:57:26.043Z,100.00
2023-06-05T06:59:55.654Z,100.00
2023-06-05T07:02:27.097Z,100.00
2023-06-05T07:04:56.072Z,100.00
2023-06-05T07:07:25.227Z,100.00
2023-06-05T07:09:54.081Z,100.00
2023-06-05T07:12:24.240Z,100.00
2023-06-05T07:14:53.021Z,100.00
2023-06-05T07:17:22.448Z,100.00
2023-06-05T07:19:51.933Z,100.00
2023-06-05T07:22:21.233Z,100.00
2023-06-05T07:24:50.262Z,100.00
2023-06-05T07:27:19.384Z,100.00
2023-06-05T07:29:50.982Z,100.00
2023-06-05T07:32:21.758Z,100.00
2023-06-05T07:34:50.535Z,100.00
2023-06-05T07:37:19.392Z,100.00
2023-06-05T07:39:51.343Z,100.00
2023-06-05T07:42:20.075Z,100.00
2023-06-05T07:44:50.362Z,100.00
2023-06-05T07:47:19.110Z,100.00
2023-06-05T07:50:00.216Z,100.00
2023-06-05T07:52:29.536Z,100.00
2023-06-05T07:54:58.708Z,100.00
2023-06-05T07:57:28.553Z,100.00
2023-06-05T07:59:58.601Z,100.00
2023-06-05T08:02:27.430Z,100.00
2023-06-05T08:04:56.459Z,100.00
2023-06-05T08:07:25.176Z,100.00
2023-06-05T08:09:54.020Z,100.00
2023-06-05T08:12:22.698Z,100.00
2023-06-05T08:14:51.385Z,91.22
2023-06-05T08:17:21.541Z,93.55
2023-06-05T08:19:50.584Z,92.05
2023-06-05T08:22:19.357Z,90.12
2023-06-05T08:24:49.596Z,100.00
2023-06-05T08:27:19.564Z,97.11
2023-06-05T08:29:48.394Z,89.79
2023-06-05T08:32:18.943Z,90.11
2023-06-05T08:34:49.112Z,91.07
2023-06-05T08:37:17.988Z,74.97
2023-06-05T08:39:48.061Z,71.90
2023-06-05T08:42:19.509Z,75.58
2023-06-05T08:45:01.030Z,82.66
2023-06-05T08:47:32.615Z,80.25
2023-06-05T08:50:07.736Z,82.13
2023-06-05T08:52:41.810Z,83.37
2023-06-05T08:55:12.497Z,84.29
2023-06-05T08:57:43.219Z,96.07
2023-06-05T09:00:13.368Z,97.11
2023-06-05T09:02:47.898Z,86.35
2023-06-05T09:05:19.463Z,71.00
2023-06-05T09:07:48.109Z,69.76
2023-06-05T09:10:29.331Z,81.05
2023-06-05T09:13:00.643Z,85.79
2023-06-05T09:15:32.198Z,100.00
2023-06-05T09:18:09.347Z,89.35
2023-06-05T09:20:42.065Z,77.61
2023-06-05T09:23:28.536Z,87.99
2023-06-05T09:26:00.698Z,86.75
2023-06-05T09:28:29.475Z,90.29
2023-06-05T09:31:00.765Z,89.23
2023-06-05T09:33:31.814Z,95.12
2023-06-05T09:36:12.068Z,95.25
2023-06-05T09:38:43.305Z,94.70
2023-06-05T09:41:15.604Z,91.74
2023-06-05T09:43:44.444Z,100.00
2023-06-05T09:46:15.960Z,94.29
2023-06-05T09:48:54.639Z,99.33
2023-06-05T09:51:24.689Z,100.00
2023-06-05T09:53:53.531Z,100.00
2023-06-05T09:56:24.782Z,100.00
2023-06-05T09:58:54.746Z,100.00
2023-06-05T10:01:28.907Z,100.00
2023-06-05T10:04:01.584Z,100.00
2023-06-05T10:06:34.716Z,100.00
2023-06-05T10:09:04.106Z,100.00
2023-06-05T10:11:33.284Z,97.09
2023-06-05T10:14:03.545Z,84.50
2023-06-05T10:16:33.138Z,92.96
2023-06-05T10:19:03.270Z,100.00
2023-06-05T10:21:34.863Z,100.00
2023-06-05T10:24:08.369Z,100.00
2023-06-05T10:27:19.889Z,95.48
2023-06-05T10:30:34.364Z,100.00
2023-06-05T10:33:21.973Z,100.00
2023-06-05T10:36:02.108Z,100.00
2023-06-05T10:38:34.866Z,100.00
2023-06-05T10:41:06.920Z,100.00
2023-06-05T10:43:38.933Z,100.00
2023-06-05T10:46:33.724Z,89.60
2023-06-05T10:49:16.918Z,100.00
2023-06-05T10:51:47.803Z,100.00
2023-06-05T10:54:57.194Z,100.00
2023-06-05T10:57:26.164Z,94.85
2023-06-05T11:00:12.233Z,88.53
2023-06-05T11:02:50.122Z,94.32
2023-06-05T11:05:19.032Z,93.35
2023-06-05T11:07:48.527Z,90.81
2023-06-05T11:10:22.612Z,100.00
2023-06-05T11:13:03.346Z,96.35
2023-06-05T11:15:55.387Z,96.05
2023-06-05T11:18:36.485Z,100.00
2023-06-05T11:21:05.781Z,100.00
2023-06-05T11:23:35.007Z,100.00
2023-06-05T11:26:44.412Z,100.00
2023-06-05T11:29:17.888Z,100.00
2023-06-05T11:31:47.760Z,100.00
2023-06-05T11:34:17.649Z,100.00
2023-06-05T11:36:47.024Z,100.00
2023-06-05T11:39:16.081Z,100.00
2023-06-05T11:41:51.464Z,100.00
2023-06-05T11:44:34.441Z,100.00
2023-06-05T11:47:03.721Z,100.00
2023-06-05T11:49:33.023Z,100.00
2023-06-05T11:52:02.089Z,100.00
2023-06-05T11:54:35.281Z,100.00
2023-06-05T11:57:11.774Z,100.00
2023-06-05T11:59:40.701Z,100.00
2023-06-05T12:02:10.713Z,100.00
2023-06-05T12:04:42.827Z,100.00
2023-06-05T12:07:13.460Z,100.00
2023-06-05T12:09:42.695Z,100.00
2023-06-05T12:12:13.279Z,100.00
2023-06-05T12:14:42.212Z,100.00
2023-06-05T12:17:15.129Z,100.00
2023-06-05T12:19:44.056Z,100.00
2023-06-05T12:22:13.373Z,100.00
2023-06-05T12:24:43.045Z,100.00
2023-06-05T12:27:13.301Z,100.00
2023-06-05T12:29:56.523Z,100.00
2023-06-05T12:32:27.774Z,100.00
2023-06-05T12:35:02.553Z,100.00
2023-06-05T12:37:40.439Z,100.00
2023-06-05T12:40:12.934Z,100.00
2023-06-05T12:42:44.915Z,100.00
2023-06-05T12:45:14.594Z,100.00
2023-06-05T12:47:45.058Z,100.00
2023-06-05T12:50:14.775Z,100.00
2023-06-05T12:52:44.490Z,100.00
2023-06-05T12:55:13.569Z,100.00
2023-06-05T12:57:43.609Z,100.00
2023-06-05T13:00:14.681Z,100.00
2023-06-05T13:02:46.590Z,100.00
2023-06-05T13:05:16.608Z,100.00
2023-06-05T13:07:45.676Z,100.00
2023-06-05T13:10:14.596Z,100.00
2023-06-05T13:12:45.640Z,100.00
2023-06-05T13:15:14.359Z,100.00
2023-06-05T13:17:44.521Z,100.00
2023-06-05T13:20:14.062Z,100.00
2023-06-05T13:22:43.567Z,100.00
2023-06-05T13:25:13.437Z,100.00
2023-06-05T13:27:42.157Z,100.00
2023-06-05T13:30:13.412Z,100.00
2023-06-05T13:32:42.420Z,100.00
2023-06-05T13:35:12.081Z,99.18
2023-06-05T13:37:41.829Z,100.00
2023-06-05T13:40:13.102Z,100.00
2023-06-05T13:42:41.960Z,100.00
2023-06-05T13:45:12.898Z,100.00
2023-06-05T13:47:41.841Z,99.15
2023-06-05T13:50:11.613Z,100.00
2023-06-05T13:52:40.443Z,100.00
2023-06-05T13:55:10.010Z,100.00
2023-06-05T13:57:39.025Z,100.00
2023-06-05T14:00:10.395Z,100.00
2023-06-05T14:02:40.892Z,100.00
2023-06-05T14:05:11.833Z,100.00
2023-06-05T14:07:48.959Z,100.00
2023-06-05T14:10:20.253Z,100.00
2023-06-05T14:12:50.046Z,100.00
2023-06-05T14:15:19.361Z,100.00
2023-06-05T14:17:52.130Z,100.00
2023-06-05T14:20:22.607Z,100.00
2023-06-05T14:22:52.632Z,100.00
2023-06-05T14:25:21.777Z,100.00
2023-06-05T14:27:53.516Z,100.00
2023-06-05T14:30:22.392Z,100.00
2023-06-05T14:32:52.742Z,100.00
2023-06-05T14:35:22.081Z,100.00
2023-06-05T14:37:50.953Z,100.00
2023-06-05T14:40:20.053Z,100.00
2023-06-05T14:42:48.841Z,100.00
2023-06-05T14:45:17.945Z,100.00
2023-06-05T14:47:48.430Z,100.00
2023-06-05T14:50:18.970Z,100.00
2023-06-05T14:52:47.638Z,100.00
2023-06-05T14:55:16.620Z,100.00
2023-06-05T14:57:45.509Z,100.00
2023-06-05T15:00:15.138Z,100.00
2023-06-05T15:02:44.052Z,100.00
2023-06-05T15:05:12.928Z,100.00
2023-06-05T15:07:45.841Z,100.00
2023-06-05T15:10:16.354Z,100.00
2023-06-05T15:12:45.500Z,100.00
2023-06-05T15:17:46.026Z,100.00
2023-06-05T15:20:14.852Z,100.00
2023-06-05T15:22:45.073Z,100.00
2023-06-05T15:25:13.991Z,100.00
2023-06-05T15:27:43.281Z,100.00
2023-06-05T15:30:12.504Z,100.00
2023-06-05T15:32:41.360Z,100.00
2023-06-05T15:35:11.002Z,100.00
2023-06-05T15:37:39.767Z,100.00
2023-06-05T15:40:11.813Z,100.00
2023-06-05T15:42:40.649Z,100.00
2023-06-05T15:45:10.627Z,100.00
2023-06-05T15:47:39.822Z,100.00
2023-06-05T15:50:10.114Z,100.00
2023-06-05T15:52:40.896Z,100.00
2023-06-05T15:55:11.838Z,100.00
2023-06-05T15:57:42.066Z,100.00
2023-06-05T16:00:12.245Z,100.00
2023-06-05T16:02:41.020Z,100.00
2023-06-05T16:05:10.448Z,100.00
2023-06-05T16:07:39.298Z,100.00
2023-06-05T16:10:11.315Z,100.00
2023-06-05T16:12:40.358Z,100.00
2023-06-05T16:15:10.763Z,100.00
2023-06-05T16:17:42.575Z,100.00
2023-06-05T16:20:12.749Z,100.00
2023-06-05T16:22:41.597Z,100.00
2023-06-05T16:25:12.377Z,100.00
2023-06-05T16:27:41.232Z,100.00
2023-06-05T16:30:10.831Z,100.00
2023-06-05T16:32:39.734Z,100.00
2023-06-05T16:35:09.600Z,100.00
2023-06-05T16:37:38.243Z,100.00
2023-06-05T16:40:10.204Z,100.00
2023-06-05T16:42:40.950Z,100.00
2023-06-05T16:45:10.837Z,100.00
2023-06-05T16:47:39.643Z,100.00
2023-06-05T16:50:09.376Z,100.00
2023-06-05T16:52:38.366Z,100.00
2023-06-05T16:55:07.866Z,100.00
2023-06-05T16:57:36.700Z,100.00
2023-06-05T17:00:09.455Z,100.00
2023-06-05T17:02:38.472Z,100.00
2023-06-05T17:05:08.582Z,100.00
2023-06-05T17:07:38.662Z,100.00
2023-06-05T17:10:09.194Z,100.00
2023-06-05T17:12:37.962Z,100.00
2023-06-05T17:15:11.833Z,100.00
2023-06-05T17:17:41.074Z,100.00
2023-06-05T17:20:10.783Z,100.00
2023-06-05T17:22:39.679Z,100.00
2023-06-05T17:25:12.247Z,100.00
2023-06-05T17:27:41.389Z,100.00
2023-06-05T17:30:14.607Z,100.00
2023-06-05T17:32:43.534Z,100.00
2023-06-05T17:35:12.250Z,100.00
2023-06-05T17:37:41.406Z,100.00
2023-06-05T17:40:11.221Z,100.00
2023-06-05T17:42:40.038Z,100.00
2023-06-05T17:45:12.574Z,100.00
2023-06-05T17:47:41.327Z,100.00
2023-06-05T17:50:11.237Z,100.00
2023-06-05T17:52:40.012Z,100.00
2023-06-05T17:55:10.071Z,100.00
2023-06-05T17:57:38.795Z,100.00
2023-06-05T18:00:09.857Z,100.00
2023-06-05T18:02:50.837Z,100.00
2023-06-05T18:05:20.355Z,100.00
2023-06-05T18:07:49.188Z,100.00
2023-06-05T18:10:18.019Z,100.00
2023-06-05T18:12:46.624Z,100.00
2023-06-05T18:15:15.429Z,100.00
2023-06-05T18:17:44.180Z,100.00
2023-06-05T18:20:14.803Z,100.00
2023-06-05T18:22:43.433Z,100.00
2023-06-05T18:25:14.540Z,100.00
2023-06-05T18:27:43.223Z,100.00
2023-06-05T18:30:13.165Z,100.00
2023-06-05T18:32:41.819Z,100.00
2023-06-05T18:35:12.940Z,100.00
2023-06-05T18:37:41.825Z,100.00
2023-06-05T18:40:12.035Z,100.00
2023-06-05T18:42:40.660Z,100.00
2023-06-05T18:45:10.971Z,100.00
2023-06-05T18:47:39.763Z,100.00
2023-06-05T18:50:09.204Z,100.00
2023-06-05T18:52:39.485Z,100.00
2023-06-05T18:55:09.584Z,100.00
2023-06-05T18:57:39.448Z,100.00
2023-06-05T19:00:11.457Z,100.00
2023-06-05T19:02:40.288Z,100.00
2023-06-05T19:05:10.207Z,100.00
2023-06-05T19:07:40.991Z,100.00
2023-06-05T19:10:10.396Z,100.00
2023-06-05T19:12:39.185Z,100.00
2023-06-05T19:15:09.401Z,100.00
2023-06-05T19:17:38.103Z,100.00
2023-06-05T19:20:08.863Z,100.00
2023-06-05T19:22:37.530Z,100.00
2023-06-05T19:25:09.333Z,100.00
2023-06-05T19:27:40.089Z,100.00
2023-06-05T19:30:10.644Z,100.00
2023-06-05T19:32:39.524Z,100.00
2023-06-05T19:35:09.052Z,100.00
2023-06-05T19:37:37.705Z,100.00
2023-06-05T19:40:09.318Z,100.00
2023-06-05T19:42:37.958Z,100.00
2023-06-05T19:45:08.127Z,100.00
2023-06-05T19:47:36.900Z,100.00
2023-06-05T19:50:07.934Z,100.00
2023-06-05T19:52:36.777Z,100.00
2023-06-05T19:55:08.255Z,100.00
2023-06-05T19:57:37.303Z,100.00
2023-06-05T20:00:08.067Z,100.00
2023-06-05T20:02:43.526Z,100.00
2023-06-05T20:05:12.288Z,100.00
2023-06-05T20:07:41.023Z,100.00
2023-06-05T20:10:12.224Z,100.00
2023-06-05T20:12:40.864Z,100.00
2023-06-05T20:15:11.714Z,100.00
2023-06-05T20:17:40.602Z,100.00
2023-06-05T20:20:10.447Z,100.00
2023-06-05T20:22:39.132Z,100.00
2023-06-05T20:25:11.040Z,100.00
2023-06-05T20:27:39.987Z,100.00
2023-06-05T20:30:10.087Z,100.00
2023-06-05T20:32:38.748Z,100.00
2023-06-05T20:35:09.610Z,100.00
2023-06-05T20:37:38.760Z,100.00
2023-06-05T20:40:12.435Z,100.00
2023-06-05T20:42:41.418Z,100.00
2023-06-05T20:45:11.592Z,100.00
2023-06-05T20:47:42.099Z,100.00
2023-06-05T20:50:12.831Z,100.00
2023-06-05T20:52:41.497Z,100.00
2023-06-05T20:55:11.873Z,100.00
2023-06-05T20:57:40.706Z,100.00
2023-06-05T21:00:10.986Z,100.00
2023-06-05T21:02:39.698Z,100.00
2023-06-05T21:05:09.471Z,100.00
2023-06-05T21:07:38.367Z,100.00
2023-06-05T21:10:08.040Z,100.00
2023-06-05T21:12:38.226Z,100.00
2023-06-05T21:15:08.416Z,100.00
2023-06-05T21:17:38.690Z,100.00
2023-06-05T21:20:09.147Z,100.00
2023-06-05T21:22:38.109Z,100.00
2023-06-05T21:25:08.170Z,100.00
2023-06-05T21:27:38.267Z,100.00
2023-06-05T21:30:08.986Z,100.00
2023-06-05T21:32:37.805Z,100.00
2023-06-05T21:35:07.413Z,100.00
2023-06-05T21:37:36.050Z,100.00
2023-06-05T21:40:05.305Z,100.00
2023-06-05T21:42:33.963Z,100.00
2023-06-05T21:45:04.249Z,100.00
2023-06-05T21:47:32.962Z,100.00
2023-06-05T21:50:01.749Z,100.00
2023-06-05T21:52:30.638Z,100.00
2023-06-05T21:54:59.237Z,100.00
2023-06-05T21:57:27.987Z,100.00
2023-06-05T21:59:56.835Z,100.00
2023-06-05T22:02:26.931Z,100.00
2023-06-05T22:04:55.885Z,100.00
2023-06-05T22:07:25.445Z,100.00
2023-06-05T22:09:54.111Z,100.00
2023-06-05T22:12:25.335Z,100.00
2023-06-05T22:14:54.313Z,100.00
2023-06-05T22:17:26.461Z,100.00
2023-06-05T22:19:58.638Z,100.00
2023-06-05T22:22:28.075Z,100.00
2023-06-05T22:24:58.222Z,100.00
2023-06-05T22:27:27.143Z,100.00
2023-06-05T22:29:56.574Z,100.00
2023-06-05T22:32:25.733Z,100.00
2023-06-05T22:34:55.930Z,100.00
2023-06-05T22:37:26.396Z,100.00
2023-06-05T22:39:55.210Z,100.00
2023-06-05T22:42:24.017Z,100.00
2023-06-05T22:44:52.849Z,100.00
2023-06-05T22:47:21.926Z,100.00
2023-06-05T22:49:53.860Z,100.00
2023-06-05T22:52:25.681Z,100.00
2023-06-05T22:54:55.255Z,100.00
2023-06-05T22:57:24.092Z,100.00
2023-06-05T22:59:53.280Z,100.00
2023-06-05T23:02:22.752Z,100.00
2023-06-05T23:04:52.020Z,100.00
2023-06-05T23:07:21.574Z,100.00
2023-06-05T23:09:51.763Z,100.00
2023-06-05T23:12:22.001Z,100.00
2023-06-05T23:14:50.711Z,100.00
2023-06-05T23:17:19.635Z,100.00
2023-06-05T23:19:48.326Z,100.00
2023-06-05T23:22:17.359Z,100.00
2023-06-05T23:24:46.072Z,100.00
2023-06-05T23:27:16.082Z,100.00
2023-06-05T23:29:45.331Z,100.00
2023-06-05T23:32:14.278Z,100.00
2023-06-05T23:34:43.036Z,100.00
2023-06-05T23:37:11.678Z,100.00
2023-06-05T23:39:40.316Z,100.00
2023-06-05T23:42:10.420Z,100.00
2023-06-05T23:44:40.532Z,100.00
2023-06-05T23:47:09.696Z,100.00
2023-06-05T23:49:38.436Z,100.00
2023-06-05T23:52:08.532Z,100.00
2023-06-05T23:54:37.182Z,100.00
2023-06-05T23:57:06.641Z,100.00
2023-06-05T23:59:35.456Z,100.00
